sensor_id;sensor_type;location;lat;lon;timestamp;pressure;altitude;pressure_sealevel;temperature;humidity
73860;BME280;62197;51.632;13.700;2022-11-15T00:00:52;100286.59;;;4.70;100.00
73860;BME280;62197;51.632;13.700;2022-11-15T00:03:20;100289.34;;;4.70;100.00
73860;BME280;62197;51.632;13.700;2022-11-15T00:05:46;100271.84;;;4.58;100.00
73860;BME280;62197;51.632;13.700;2022-11-15T00:08:12;100267.19;;;4.45;100.00
73860;BME280;62197;51.632;13.700;2022-11-15T00:10:38;100270.97;;;4.38;100.00
73860;BME280;62197;51.632;13.700;2022-11-15T00:13:07;100289.03;;;4.32;100.00
73860;BME280;62197;51.632;13.700;2022-11-15T00:15:37;100283.97;;;4.36;100.00
73860;BME280;62197;51.632;13.700;2022-11-15T00:18:03;100275.19;;;4.40;100.00
73860;BME280;62197;51.632;13.700;2022-11-15T00:20:29;100268.84;;;4.27;100.00
73860;BME280;62197;51.632;13.700;2022-11-15T00:22:55;100267.38;;;4.31;100.00
73860;BME280;62197;51.632;13.700;2022-11-15T00:25:20;100269.66;;;4.21;100.00
73860;BME280;62197;51.632;13.700;2022-11-15T00:27:45;100281.50;;;4.41;100.00
73860;BME280;62197;51.632;13.700;2022-11-15T00:30:11;100279.81;;;4.46;100.00
73860;BME280;62197;51.632;13.700;2022-11-15T00:32:37;100285.28;;;4.46;100.00
73860;BME280;62197;51.632;13.700;2022-11-15T00:35:03;100278.94;;;4.33;100.00
73860;BME280;62197;51.632;13.700;2022-11-15T00:37:28;100277.31;;;4.45;100.00
73860;BME280;62197;51.632;13.700;2022-11-15T00:39:54;100276.69;;;4.56;100.00
73860;BME280;62197;51.632;13.700;2022-11-15T00:42:19;100276.44;;;4.51;100.00
73860;BME280;62197;51.632;13.700;2022-11-15T00:44:44;100279.41;;;4.56;100.00
73860;BME280;62197;51.632;13.700;2022-11-15T00:47:10;100282.34;;;4.61;100.00
73860;BME280;62197;51.632;13.700;2022-11-15T00:49:35;100282.16;;;4.56;100.00
73860;BME280;62197;51.632;13.700;2022-11-15T00:52:00;100273.69;;;4.31;100.00
73860;BME280;62197;51.632;13.700;2022-11-15T00:54:26;100281.44;;;4.28;100.00
73860;BME280;62197;51.632;13.700;2022-11-15T00:56:51;100270.72;;;4.20;100.00
73860;BME280;62197;51.632;13.700;2022-11-15T00:59:16;100274.06;;;4.15;100.00
73860;BME280;62197;51.632;13.700;2022-11-15T01:01:42;100276.59;;;4.23;100.00
73860;BME280;62197;51.632;13.700;2022-11-15T01:04:07;100270.50;;;4.28;100.00
73860;BME280;62197;51.632;13.700;2022-11-15T01:06:32;100269.91;;;4.32;100.00
73860;BME280;62197;51.632;13.700;2022-11-15T01:08:58;100261.25;;;4.16;100.00
73860;BME280;62197;51.632;13.700;2022-11-15T01:11:23;100258.66;;;4.01;100.00
73860;BME280;62197;51.632;13.700;2022-11-15T01:13:48;100260.56;;;4.07;100.00
73860;BME280;62197;51.632;13.700;2022-11-15T01:16:16;100261.25;;;4.16;100.00
73860;BME280;62197;51.632;13.700;2022-11-15T01:18:43;100250.31;;;4.16;100.00
73860;BME280;62197;51.632;13.700;2022-11-15T01:21:14;100246.94;;;4.07;100.00
73860;BME280;62197;51.632;13.700;2022-11-15T01:23:40;100243.84;;;4.23;100.00
73860;BME280;62197;51.632;13.700;2022-11-15T01:26:07;100257.72;;;4.35;100.00
73860;BME280;62197;51.632;13.700;2022-11-15T01:28:36;100247.84;;;4.34;100.00
73860;BME280;62197;51.632;13.700;2022-11-15T01:31:03;100243.63;;;4.38;100.00
73860;BME280;62197;51.632;13.700;2022-11-15T01:33:29;100253.28;;;4.34;100.00
73860;BME280;62197;51.632;13.700;2022-11-15T01:35:54;100243.44;;;4.33;100.00
73860;BME280;62197;51.632;13.700;2022-11-15T01:38:20;100242.78;;;4.31;100.00
73860;BME280;62197;51.632;13.700;2022-11-15T01:40:46;100227.69;;;4.35;100.00
73860;BME280;62197;51.632;13.700;2022-11-15T01:43:23;100223.47;;;4.32;100.00
73860;BME280;62197;51.632;13.700;2022-11-15T01:45:52;100229.16;;;4.44;100.00
73860;BME280;62197;51.632;13.700;2022-11-15T01:48:21;100228.97;;;4.52;100.00
73860;BME280;62197;51.632;13.700;2022-11-15T01:50:47;100221.16;;;4.42;100.00
73860;BME280;62197;51.632;13.700;2022-11-15T01:53:14;100216.75;;;4.35;100.00
73860;BME280;62197;51.632;13.700;2022-11-15T01:55:40;100219.66;;;4.27;100.00
73860;BME280;62197;51.632;13.700;2022-11-15T01:58:07;100206.84;;;4.21;100.00
73860;BME280;62197;51.632;13.700;2022-11-15T02:00:32;100206.19;;;4.19;100.00
73860;BME280;62197;51.632;13.700;2022-11-15T02:02:58;100207.25;;;4.18;100.00
73860;BME280;62197;51.632;13.700;2022-11-15T02:05:23;100200.56;;;4.27;100.00
73860;BME280;62197;51.632;13.700;2022-11-15T02:07:49;100205.38;;;4.25;100.00
73860;BME280;62197;51.632;13.700;2022-11-15T02:10:19;100202.00;;;4.10;100.00
73860;BME280;62197;51.632;13.700;2022-11-15T02:12:46;100203.03;;;4.02;100.00
73860;BME280;62197;51.632;13.700;2022-11-15T02:15:12;100194.00;;;4.08;100.00
73860;BME280;62197;51.632;13.700;2022-11-15T02:17:55;100186.44;;;4.17;100.00
73860;BME280;62197;51.632;13.700;2022-11-15T02:20:41;100197.81;;;4.27;100.00
73860;BME280;62197;51.632;13.700;2022-11-15T02:28:57;100171.56;;;4.32;100.00
73860;BME280;62197;51.632;13.700;2022-11-15T02:36:39;100177.25;;;4.44;100.00
73860;BME280;62197;51.632;13.700;2022-11-15T02:39:25;100177.03;;;4.39;100.00
73860;BME280;62197;51.632;13.700;2022-11-15T02:41:57;100177.69;;;4.41;100.00
73860;BME280;62197;51.632;13.700;2022-11-15T02:44:33;100167.56;;;4.35;100.00
73860;BME280;62197;51.632;13.700;2022-11-15T02:47:04;100165.28;;;4.45;100.00
73860;BME280;62197;51.632;13.700;2022-11-15T02:49:41;100170.94;;;4.43;100.00
73860;BME280;62197;51.632;13.700;2022-11-15T02:52:08;100169.03;;;4.44;100.00
73860;BME280;62197;51.632;13.700;2022-11-15T02:54:34;100164.84;;;4.48;100.00
73860;BME280;62197;51.632;13.700;2022-11-15T02:57:03;100162.75;;;4.50;100.00
73860;BME280;62197;51.632;13.700;2022-11-15T03:08:01;100155.81;;;4.74;100.00
73860;BME280;62197;51.632;13.700;2022-11-15T03:15:57;100141.91;;;4.75;100.00
73860;BME280;62197;51.632;13.700;2022-11-15T03:18:37;100159.59;;;4.79;100.00
73860;BME280;62197;51.632;13.700;2022-11-15T03:21:06;100146.53;;;4.81;100.00
73860;BME280;62197;51.632;13.700;2022-11-15T03:23:33;100145.72;;;4.74;100.00
73860;BME280;62197;51.632;13.700;2022-11-15T03:26:01;100147.59;;;4.74;100.00
73860;BME280;62197;51.632;13.700;2022-11-15T03:28:35;100147.81;;;4.72;100.00
73860;BME280;62197;51.632;13.700;2022-11-15T03:31:02;100146.34;;;4.76;100.00
73860;BME280;62197;51.632;13.700;2022-11-15T03:33:50;100146.97;;;4.72;100.00
73860;BME280;62197;51.632;13.700;2022-11-15T03:36:22;100151.19;;;4.74;100.00
73860;BME280;62197;51.632;13.700;2022-11-15T03:38:48;100149.31;;;4.68;100.00
73860;BME280;62197;51.632;13.700;2022-11-15T03:41:23;100138.97;;;4.57;100.00
73860;BME280;62197;51.632;13.700;2022-11-15T03:44:01;100138.78;;;4.52;100.00
73860;BME280;62197;51.632;13.700;2022-11-15T03:46:34;100133.50;;;4.57;100.00
73860;BME280;62197;51.632;13.700;2022-11-15T03:49:09;100137.31;;;4.56;100.00
73860;BME280;62197;51.632;13.700;2022-11-15T03:51:36;100122.41;;;4.52;100.00
73860;BME280;62197;51.632;13.700;2022-11-15T03:54:03;100133.50;;;4.57;100.00
73860;BME280;62197;51.632;13.700;2022-11-15T03:56:29;100127.84;;;4.52;100.00
73860;BME280;62197;51.632;13.700;2022-11-15T03:58:54;100115.03;;;4.46;100.00
73860;BME280;62197;51.632;13.700;2022-11-15T04:01:19;100125.56;;;4.49;100.00
73860;BME280;62197;51.632;13.700;2022-11-15T04:03:45;100127.22;;;4.50;100.00
73860;BME280;62197;51.632;13.700;2022-11-15T04:06:10;100120.91;;;4.56;100.00
73860;BME280;62197;51.632;13.700;2022-11-15T04:08:35;100124.69;;;4.55;100.00
73860;BME280;62197;51.632;13.700;2022-11-15T04:11:01;100124.28;;;4.45;100.00
73860;BME280;62197;51.632;13.700;2022-11-15T04:13:26;100121.56;;;4.45;100.00
73860;BME280;62197;51.632;13.700;2022-11-15T04:15:51;100120.72;;;4.44;100.00
73860;BME280;62197;51.632;13.700;2022-11-15T04:18:17;100115.25;;;4.44;100.00
73860;BME280;62197;51.632;13.700;2022-11-15T04:20:42;100115.66;;;4.48;100.00
73860;BME280;62197;51.632;13.700;2022-11-15T04:23:26;100120.72;;;4.44;100.00
73860;BME280;62197;51.632;13.700;2022-11-15T04:26:12;100123.03;;;4.41;100.00
73860;BME280;62197;51.632;13.700;2022-11-15T04:28:39;100114.41;;;4.31;100.00
73860;BME280;62197;51.632;13.700;2022-11-15T04:31:25;100116.72;;;4.27;100.00
73860;BME280;62197;51.632;13.700;2022-11-15T04:33:50;100103.25;;;4.13;100.00
73860;BME280;62197;51.632;13.700;2022-11-15T04:36:15;100117.56;;;4.08;100.00
73860;BME280;62197;51.632;13.700;2022-11-15T04:38:59;100112.72;;;4.04;100.00
73860;BME280;62197;51.632;13.700;2022-11-15T04:41:25;100109.97;;;4.04;100.00
73860;BME280;62197;51.632;13.700;2022-11-15T04:43:50;100104.31;;;3.99;100.00
73860;BME280;62197;51.632;13.700;2022-11-15T04:46:15;100107.06;;;4.12;100.00
73860;BME280;62197;51.632;13.700;2022-11-15T04:48:41;100111.44;;;4.13;100.00
73860;BME280;62197;51.632;13.700;2022-11-15T04:51:09;100109.56;;;4.13;100.00
73860;BME280;62197;51.632;13.700;2022-11-15T04:53:34;100109.13;;;4.03;100.00
73860;BME280;62197;51.632;13.700;2022-11-15T04:56:00;100110.16;;;3.96;100.00
73860;BME280;62197;51.632;13.700;2022-11-15T04:58:25;100107.03;;;3.92;100.00
73860;BME280;62197;51.632;13.700;2022-11-15T05:00:50;100096.09;;;3.86;100.00
73860;BME280;62197;51.632;13.700;2022-11-15T05:03:16;100103.25;;;3.87;100.00
73860;BME280;62197;51.632;13.700;2022-11-15T05:06:00;100101.16;;;3.89;100.00
73860;BME280;62197;51.632;13.700;2022-11-15T05:08:25;100103.22;;;3.80;100.00
73860;BME280;62197;51.632;13.700;2022-11-15T05:10:51;100101.72;;;3.71;100.00
73860;BME280;62197;51.632;13.700;2022-11-15T05:13:17;100105.72;;;3.82;100.00
73860;BME280;62197;51.632;13.700;2022-11-15T05:15:42;100109.50;;;3.87;100.00
73860;BME280;62197;51.632;13.700;2022-11-15T05:18:07;100111.66;;;4.05;100.00
73860;BME280;62197;51.632;13.700;2022-11-15T05:20:33;100118.81;;;4.51;100.00
73860;BME280;62197;51.632;13.700;2022-11-15T05:22:58;100111.69;;;4.31;100.00
73860;BME280;62197;51.632;13.700;2022-11-15T05:25:24;100118.38;;;4.09;100.00
73860;BME280;62197;51.632;13.700;2022-11-15T05:27:49;100105.56;;;4.55;100.00
73860;BME280;62197;51.632;13.700;2022-11-15T05:30:15;100106.81;;;4.72;100.00
73860;BME280;62197;51.632;13.700;2022-11-15T05:32:41;100105.34;;;4.63;100.00
73860;BME280;62197;51.632;13.700;2022-11-15T05:35:08;100112.94;;;4.48;100.00
73860;BME280;62197;51.632;13.700;2022-11-15T05:37:37;100108.31;;;4.16;100.00
73860;BME280;62197;51.632;13.700;2022-11-15T05:40:03;100099.06;;;3.91;100.00
73860;BME280;62197;51.632;13.700;2022-11-15T05:42:29;100103.19;;;3.74;100.00
73860;BME280;62197;51.632;13.700;2022-11-15T05:44:54;100105.69;;;3.62;100.00
73860;BME280;62197;51.632;13.700;2022-11-15T05:47:24;100106.09;;;3.59;100.00
73860;BME280;62197;51.632;13.700;2022-11-15T05:49:52;100107.16;;;3.58;100.00
73860;BME280;62197;51.632;13.700;2022-11-15T05:52:21;100110.25;;;3.48;100.00
73860;BME280;62197;51.632;13.700;2022-11-15T05:54:46;100092.34;;;3.26;100.00
73860;BME280;62197;51.632;13.700;2022-11-15T05:57:12;100104.28;;;3.25;100.00
73860;BME280;62197;51.632;13.700;2022-11-15T05:59:37;100108.50;;;3.28;100.00
73860;BME280;62197;51.632;13.700;2022-11-15T06:02:03;100105.56;;;3.23;100.00
73860;BME280;62197;51.632;13.700;2022-11-15T06:04:28;100100.34;;;3.34;100.00
73860;BME280;62197;51.632;13.700;2022-11-15T06:06:53;100105.63;;;3.42;100.00
73860;BME280;62197;51.632;13.700;2022-11-15T06:09:19;100097.66;;;3.47;100.00
73860;BME280;62197;51.632;13.700;2022-11-15T06:11:44;100108.16;;;3.50;100.00
73860;BME280;62197;51.632;13.700;2022-11-15T06:14:09;100105.25;;;3.58;100.00
73860;BME280;62197;51.632;13.700;2022-11-15T06:16:35;100102.97;;;3.68;100.00
73860;BME280;62197;51.632;13.700;2022-11-15T06:19:00;100106.13;;;3.65;100.00
73860;BME280;62197;51.632;13.700;2022-11-15T06:21:26;100109.25;;;3.62;100.00
73860;BME280;62197;51.632;13.700;2022-11-15T06:23:53;100104.00;;;3.61;100.00
73860;BME280;62197;51.632;13.700;2022-11-15T06:26:18;100113.91;;;3.68;100.00
73860;BME280;62197;51.632;13.700;2022-11-15T06:28:43;100105.50;;;3.70;100.00
73860;BME280;62197;51.632;13.700;2022-11-15T06:31:10;100120.41;;;3.67;100.00
73860;BME280;62197;51.632;13.700;2022-11-15T06:33:39;100114.06;;;3.60;100.00
73860;BME280;62197;51.632;13.700;2022-11-15T06:36:06;100103.13;;;3.47;100.00
73860;BME280;62197;51.632;13.700;2022-11-15T06:38:32;100112.81;;;3.50;100.00
73860;BME280;62197;51.632;13.700;2022-11-15T06:41:04;100109.03;;;3.64;100.00
73860;BME280;62197;51.632;13.700;2022-11-15T06:43:30;100119.38;;;3.82;100.00
73860;BME280;62197;51.632;13.700;2022-11-15T06:45:57;100113.31;;;3.99;100.00
73860;BME280;62197;51.632;13.700;2022-11-15T06:48:23;100111.66;;;4.05;100.00
73860;BME280;62197;51.632;13.700;2022-11-15T06:50:57;100118.59;;;4.20;100.00
73860;BME280;62197;51.632;13.700;2022-11-15T06:53:23;100115.66;;;4.15;100.00
73860;BME280;62197;51.632;13.700;2022-11-15T06:55:49;100114.19;;;4.06;100.00
73860;BME280;62197;51.632;13.700;2022-11-15T06:58:14;100130.16;;;4.22;100.00
73860;BME280;62197;51.632;13.700;2022-11-15T07:00:40;100127.44;;;4.29;100.00
73860;BME280;62197;51.632;13.700;2022-11-15T07:03:05;100125.94;;;4.39;100.00
73860;BME280;62197;51.632;13.700;2022-11-15T07:05:31;100128.50;;;4.41;100.00
73860;BME280;62197;51.632;13.700;2022-11-15T07:07:57;100136.47;;;4.36;100.00
73860;BME280;62197;51.632;13.700;2022-11-15T07:10:24;100137.53;;;4.35;100.00
73860;BME280;62197;51.632;13.700;2022-11-15T07:12:51;100123.88;;;4.35;100.00
73860;BME280;62197;51.632;13.700;2022-11-15T07:15:17;100136.03;;;4.45;100.00
73860;BME280;62197;51.632;13.700;2022-11-15T07:17:43;100138.56;;;4.53;100.00
73860;BME280;62197;51.632;13.700;2022-11-15T07:20:08;100138.38;;;4.48;100.00
73860;BME280;62197;51.632;13.700;2022-11-15T07:22:33;100138.78;;;4.52;100.00
73860;BME280;62197;51.632;13.700;2022-11-15T07:24:59;100141.94;;;4.62;100.00
73860;BME280;62197;51.632;13.700;2022-11-15T07:27:24;100140.66;;;4.65;100.00
73860;BME280;62197;51.632;13.700;2022-11-15T07:29:49;100133.53;;;4.64;100.00
73860;BME280;62197;51.632;13.700;2022-11-15T07:32:15;100129.94;;;4.70;100.00
73860;BME280;62197;51.632;13.700;2022-11-15T07:34:40;100122.56;;;4.77;100.00
73860;BME280;62197;51.632;13.700;2022-11-15T07:37:05;100124.47;;;4.89;100.00
73860;BME280;62197;51.632;13.700;2022-11-15T07:39:31;100123.34;;;5.16;100.00
73860;BME280;62197;51.632;13.700;2022-11-15T07:41:56;100132.13;;;5.31;100.00
73860;BME280;62197;51.632;13.700;2022-11-15T07:44:42;100125.03;;;7.41;100.00
73860;BME280;62197;51.632;13.700;2022-11-15T07:47:07;100125.56;;;7.67;100.00
73860;BME280;62197;51.632;13.700;2022-11-15T07:49:32;100123.03;;;7.66;100.00
73860;BME280;62197;51.632;13.700;2022-11-15T07:51:58;100113.22;;;7.88;100.00
73860;BME280;62197;51.632;13.700;2022-11-15T07:54:23;100117.94;;;7.99;100.00
73860;BME280;62197;51.632;13.700;2022-11-15T07:56:48;100109.22;;;7.72;100.00
73860;BME280;62197;51.632;13.700;2022-11-15T07:59:14;100112.19;;;7.71;100.00
73860;BME280;62197;51.632;13.700;2022-11-15T08:01:39;100115.88;;;8.24;100.00
73860;BME280;62197;51.632;13.700;2022-11-15T08:04:04;100113.41;;;8.34;98.43
73860;BME280;62197;51.632;13.700;2022-11-15T08:06:30;100118.88;;;7.93;100.00
73860;BME280;62197;51.632;13.700;2022-11-15T08:08:55;100126.47;;;8.09;100.00
73860;BME280;62197;51.632;13.700;2022-11-15T08:11:20;100119.25;;;8.26;98.47
73860;BME280;62197;51.632;13.700;2022-11-15T08:13:46;100110.63;;;8.23;98.23
73860;BME280;62197;51.632;13.700;2022-11-15T08:16:11;100122.94;;;8.84;100.00
73860;BME280;62197;51.632;13.700;2022-11-15T08:18:37;100115.25;;;8.63;96.90
73860;BME280;62197;51.632;13.700;2022-11-15T08:21:03;100115.25;;;8.63;96.48
73860;BME280;62197;51.632;13.700;2022-11-15T08:23:28;100111.19;;;9.00;95.57
73860;BME280;62197;51.632;13.700;2022-11-15T08:26:02;100115.38;;;8.57;95.70
73860;BME280;62197;51.632;13.700;2022-11-15T08:28:27;100113.75;;;8.26;98.19
73860;BME280;62197;51.632;13.700;2022-11-15T08:30:53;100113.06;;;8.42;96.21
73860;BME280;62197;51.632;13.700;2022-11-15T08:33:18;100110.91;;;8.44;98.23
73860;BME280;62197;51.632;13.700;2022-11-15T08:35:43;100109.94;;;8.39;97.24
73860;BME280;62197;51.632;13.700;2022-11-15T08:38:09;100113.19;;;8.36;97.81
73860;BME280;62197;51.632;13.700;2022-11-15T08:40:35;100100.03;;;8.38;98.73
73860;BME280;62197;51.632;13.700;2022-11-15T08:43:01;100113.91;;;8.43;97.13
73860;BME280;62197;51.632;13.700;2022-11-15T08:45:28;100098.28;;;8.89;99.19
73860;BME280;62197;51.632;13.700;2022-11-15T08:47:54;100095.63;;;8.94;95.10
73860;BME280;62197;51.632;13.700;2022-11-15T08:50:19;100100.19;;;8.77;96.31
73860;BME280;62197;51.632;13.700;2022-11-15T08:52:44;100087.63;;;8.70;97.73
73860;BME280;62197;51.632;13.700;2022-11-15T08:55:10;100094.44;;;8.79;97.85
73860;BME280;62197;51.632;13.700;2022-11-15T08:57:35;100101.38;;;8.81;96.56
73860;BME280;62197;51.632;13.700;2022-11-15T09:00:00;100101.28;;;8.88;97.77
73860;BME280;62197;51.632;13.700;2022-11-15T09:02:26;100098.38;;;8.94;96.55
73860;BME280;62197;51.632;13.700;2022-11-15T09:04:51;100103.19;;;8.99;96.06
73860;BME280;62197;51.632;13.700;2022-11-15T09:07:16;100105.22;;;9.03;97.13
73860;BME280;62197;51.632;13.700;2022-11-15T09:09:42;100106.28;;;9.14;96.52
73860;BME280;62197;51.632;13.700;2022-11-15T09:12:07;100100.78;;;9.02;95.00
73860;BME280;62197;51.632;13.700;2022-11-15T09:14:33;100106.53;;;9.13;95.34
73860;BME280;62197;51.632;13.700;2022-11-15T09:16:59;100104.59;;;9.25;94.89
73860;BME280;62197;51.632;13.700;2022-11-15T09:19:24;100108.88;;;9.44;94.60
73860;BME280;62197;51.632;13.700;2022-11-15T09:21:49;100101.28;;;9.51;91.78
73860;BME280;62197;51.632;13.700;2022-11-15T09:24:15;100104.25;;;9.61;91.85
73860;BME280;62197;51.632;13.700;2022-11-15T09:26:40;100093.56;;;9.76;91.00
73860;BME280;62197;51.632;13.700;2022-11-15T09:29:05;100103.81;;;9.92;90.00
73860;BME280;62197;51.632;13.700;2022-11-15T09:31:31;100097.56;;;9.96;90.00
73860;BME280;62197;51.632;13.700;2022-11-15T09:33:56;100094.28;;;10.11;90.80
73860;BME280;62197;51.632;13.700;2022-11-15T09:36:21;100088.88;;;10.16;89.96
73860;BME280;62197;51.632;13.700;2022-11-15T09:38:47;100092.19;;;10.18;88.70
73860;BME280;62197;51.632;13.700;2022-11-15T09:49:24;100088.28;;;10.47;84.39
73860;BME280;62197;51.632;13.700;2022-11-15T09:51:51;100092.66;;;10.60;84.07
73860;BME280;62197;51.632;13.700;2022-11-15T09:54:32;100098.34;;;10.70;83.88
73860;BME280;62197;51.632;13.700;2022-11-15T09:57:13;100092.06;;;10.74;84.15
73860;BME280;62197;51.632;13.700;2022-11-15T10:05:04;100090.59;;;11.43;78.88
73860;BME280;62197;51.632;13.700;2022-11-15T10:07:39;100087.25;;;11.85;77.17
73860;BME280;62197;51.632;13.700;2022-11-15T10:10:29;100080.00;;;12.27;74.72
73860;BME280;62197;51.632;13.700;2022-11-15T10:12:55;100082.44;;;12.55;74.33
73860;BME280;62197;51.632;13.700;2022-11-15T10:15:20;100072.34;;;12.70;74.38
73860;BME280;62197;51.632;13.700;2022-11-15T10:20:29;100062.75;;;12.83;71.97
73860;BME280;62197;51.632;13.700;2022-11-15T10:22:59;100063.53;;;12.42;73.81
73860;BME280;62197;51.632;13.700;2022-11-15T10:25:34;100070.06;;;12.31;74.54
73860;BME280;62197;51.632;13.700;2022-11-15T10:30:49;100058.38;;;11.97;75.61
73860;BME280;62197;51.632;13.700;2022-11-15T10:33:34;100048.56;;;12.11;76.80
73860;BME280;62197;51.632;13.700;2022-11-15T10:39:00;100041.47;;;12.20;75.91
73860;BME280;62197;51.632;13.700;2022-11-15T10:44:16;100036.03;;;12.30;76.17
73860;BME280;62197;51.632;13.700;2022-11-15T10:47:05;100035.88;;;12.47;75.79
73860;BME280;62197;51.632;13.700;2022-11-15T10:49:33;100030.13;;;12.53;74.27
73860;BME280;62197;51.632;13.700;2022-11-15T10:52:02;100020.19;;;12.57;75.20
73860;BME280;62197;51.632;13.700;2022-11-15T10:54:42;100022.31;;;13.29;72.77
73860;BME280;62197;51.632;13.700;2022-11-15T10:57:18;100017.00;;;14.04;68.42
73860;BME280;62197;51.632;13.700;2022-11-15T10:59:56;100011.47;;;14.95;64.82
73860;BME280;62197;51.632;13.700;2022-11-15T11:02:35;100004.69;;;15.46;62.20
73860;BME280;62197;51.632;13.700;2022-11-15T11:05:03;100002.78;;;15.85;61.36
73860;BME280;62197;51.632;13.700;2022-11-15T11:07:32;100003.13;;;16.17;58.49
73860;BME280;62197;51.632;13.700;2022-11-15T11:10:13;100007.66;;;16.08;59.37
73860;BME280;62197;51.632;13.700;2022-11-15T11:12:42;100010.00;;;16.30;59.57
73860;BME280;62197;51.632;13.700;2022-11-15T11:15:15;99998.84;;;16.30;59.23
73860;BME280;62197;51.632;13.700;2022-11-15T11:17:57;99997.94;;;16.06;59.40
73860;BME280;62197;51.632;13.700;2022-11-15T11:20:36;99996.94;;;15.18;62.94
73860;BME280;62197;51.632;13.700;2022-11-15T11:25:50;99989.56;;;14.73;64.06
73860;BME280;62197;51.632;13.700;2022-11-15T11:36:39;99977.25;;;15.09;64.68
73860;BME280;62197;51.632;13.700;2022-11-15T11:39:18;99967.03;;;15.64;62.51
73860;BME280;62197;51.632;13.700;2022-11-15T11:45:15;99946.50;;;17.60;56.64
73860;BME280;62197;51.632;13.700;2022-11-15T11:47:52;99951.00;;;18.12;54.36
73860;BME280;62197;51.632;13.700;2022-11-15T11:50:26;99958.28;;;18.64;51.13
73860;BME280;62197;51.632;13.700;2022-11-15T11:53:15;99954.28;;;19.24;50.01
73860;BME280;62197;51.632;13.700;2022-11-15T11:55:50;99954.28;;;19.11;49.14
73860;BME280;62197;51.632;13.700;2022-11-15T11:58:26;99937.63;;;19.60;47.75
73860;BME280;62197;51.632;13.700;2022-11-15T12:00:55;99944.47;;;19.40;49.48
73860;BME280;62197;51.632;13.700;2022-11-15T12:06:04;99931.41;;;19.49;48.90
73860;BME280;62197;51.632;13.700;2022-11-15T12:08:47;99922.94;;;19.76;48.81
73860;BME280;62197;51.632;13.700;2022-11-15T12:11:35;99915.81;;;20.50;45.59
73860;BME280;62197;51.632;13.700;2022-11-15T12:14:08;99914.72;;;20.16;46.98
73860;BME280;62197;51.632;13.700;2022-11-15T12:16:34;99915.53;;;19.94;47.82
73860;BME280;62197;51.632;13.700;2022-11-15T12:19:02;99906.56;;;20.06;47.61
73860;BME280;62197;51.632;13.700;2022-11-15T12:21:59;99901.09;;;20.01;48.07
73860;BME280;62197;51.632;13.700;2022-11-15T12:26:55;99891.69;;;19.47;48.95
73860;BME280;62197;51.632;13.700;2022-11-15T12:29:37;99887.06;;;20.67;46.32
73860;BME280;62197;51.632;13.700;2022-11-15T12:32:04;99879.19;;;20.47;46.17
73860;BME280;62197;51.632;13.700;2022-11-15T12:34:43;99881.09;;;20.16;47.24
73860;BME280;62197;51.632;13.700;2022-11-15T12:37:34;99882.50;;;20.05;47.87
73860;BME280;62197;51.632;13.700;2022-11-15T12:45:44;99872.59;;;21.13;44.83
73860;BME280;62197;51.632;13.700;2022-11-15T12:56:09;99858.22;;;20.75;44.40
73860;BME280;62197;51.632;13.700;2022-11-15T12:58:50;99862.41;;;21.34;42.78
73860;BME280;62197;51.632;13.700;2022-11-15T13:06:52;99855.50;;;20.92;43.18
73860;BME280;62197;51.632;13.700;2022-11-15T13:12:07;99843.16;;;20.62;44.48
73860;BME280;62197;51.632;13.700;2022-11-15T13:14:59;99843.50;;;20.30;45.52
73860;BME280;62197;51.632;13.700;2022-11-15T13:22:27;99834.84;;;20.49;44.58
73860;BME280;62197;51.632;13.700;2022-11-15T13:28:02;99828.09;;;20.50;44.26
73860;BME280;62197;51.632;13.700;2022-11-15T13:30:35;99825.31;;;20.06;45.27
73860;BME280;62197;51.632;13.700;2022-11-15T13:33:08;99828.47;;;20.26;44.81
73860;BME280;62197;51.632;13.700;2022-11-15T13:35:39;99813.50;;;20.09;45.48
73860;BME280;62197;51.632;13.700;2022-11-15T13:38:05;99823.81;;;20.22;45.96
73860;BME280;62197;51.632;13.700;2022-11-15T13:40:35;99821.75;;;20.75;44.03
73860;BME280;62197;51.632;13.700;2022-11-15T13:43:23;99819.66;;;21.28;43.50
73860;BME280;62197;51.632;13.700;2022-11-15T13:48:31;99814.38;;;19.96;47.03
73860;BME280;62197;51.632;13.700;2022-11-15T13:50:59;99805.72;;;19.26;47.53
73860;BME280;62197;51.632;13.700;2022-11-15T13:53:26;99823.47;;;18.08;51.06
73860;BME280;62197;51.632;13.700;2022-11-15T13:55:58;99819.00;;;17.00;54.18
73860;BME280;62197;51.632;13.700;2022-11-15T13:58:24;99808.63;;;16.35;56.07
73860;BME280;62197;51.632;13.700;2022-11-15T14:01:01;99811.75;;;15.71;58.75
73860;BME280;62197;51.632;13.700;2022-11-15T14:03:30;99803.81;;;15.10;60.37
73860;BME280;62197;51.632;13.700;2022-11-15T14:08:31;99799.91;;;14.63;62.31
73860;BME280;62197;51.632;13.700;2022-11-15T14:13:38;99795.59;;;14.16;63.72
73860;BME280;62197;51.632;13.700;2022-11-15T14:16:16;99794.78;;;14.06;64.88
73860;BME280;62197;51.632;13.700;2022-11-15T14:18:47;99799.53;;;13.85;65.71
73860;BME280;62197;51.632;13.700;2022-11-15T14:21:14;99791.78;;;13.62;66.19
73860;BME280;62197;51.632;13.700;2022-11-15T14:23:39;99794.28;;;13.48;66.73
73860;BME280;62197;51.632;13.700;2022-11-15T14:26:05;99791.78;;;13.37;67.73
73860;BME280;62197;51.632;13.700;2022-11-15T14:28:32;99793.66;;;13.16;68.24
73860;BME280;62197;51.632;13.700;2022-11-15T14:31:01;99795.81;;;12.94;68.54
73860;BME280;62197;51.632;13.700;2022-11-15T14:36:19;99799.03;;;12.61;71.18
73860;BME280;62197;51.632;13.700;2022-11-15T14:38:45;99800.44;;;12.68;71.46
73860;BME280;62197;51.632;13.700;2022-11-15T14:41:18;99810.34;;;12.49;71.77